sensor_id;sensor_type;location;lat;lon;timestamp;temperature;humidity
4699;DHT22;33708;49.466;11.176;2023-05-29T00:00:02;14.60;1.00
4699;DHT22;33708;49.466;11.176;2023-05-29T00:02:32;14.50;1.00
4699;DHT22;33708;49.466;11.176;2023-05-29T00:04:57;14.50;1.00
4699;DHT22;33708;49.466;11.176;2023-05-29T00:07:23;14.40;1.00
4699;DHT22;33708;49.466;11.176;2023-05-29T00:09:48;14.30;1.00
4699;DHT22;33708;49.466;11.176;2023-05-29T00:12:14;14.30;1.00
4699;DHT22;33708;49.466;11.176;2023-05-29T00:14:40;14.30;1.00
4699;DHT22;33708;49.466;11.176;2023-05-29T00:17:06;14.20;1.00
4699;DHT22;33708;49.466;11.176;2023-05-29T00:19:32;14.20;1.00
4699;DHT22;33708;49.466;11.176;2023-05-29T00:21:57;14.10;1.00
4699;DHT22;33708;49.466;11.176;2023-05-29T00:24:23;14.00;1.00
4699;DHT22;33708;49.466;11.176;2023-05-29T00:26:48;13.80;1.00
4699;DHT22;33708;49.466;11.176;2023-05-29T00:29:14;13.80;1.00
4699;DHT22;33708;49.466;11.176;2023-05-29T00:31:43;13.80;1.00
4699;DHT22;33708;49.466;11.176;2023-05-29T00:34:31;13.70;1.00
4699;DHT22;33708;49.466;11.176;2023-05-29T00:36:57;13.70;1.00
4699;DHT22;33708;49.466;11.176;2023-05-29T00:39:23;13.60;1.00
4699;DHT22;33708;49.466;11.176;2023-05-29T00:41:48;13.60;1.00
4699;DHT22;33708;49.466;11.176;2023-05-29T00:44:21;13.70;1.00
4699;DHT22;33708;49.466;11.176;2023-05-29T00:46:48;13.50;1.00
4699;DHT22;33708;49.466;11.176;2023-05-29T00:49:14;13.60;1.00
4699;DHT22;33708;49.466;11.176;2023-05-29T00:51:42;13.40;1.00
4699;DHT22;33708;49.466;11.176;2023-05-29T00:54:11;13.40;1.00
4699;DHT22;33708;49.466;11.176;2023-05-29T00:56:41;13.30;1.00
4699;DHT22;33708;49.466;11.176;2023-05-29T00:59:12;13.20;1.00
4699;DHT22;33708;49.466;11.176;2023-05-29T01:01:39;13.20;1.00
4699;DHT22;33708;49.466;11.176;2023-05-29T01:04:06;13.10;1.00
4699;DHT22;33708;49.466;11.176;2023-05-29T01:06:32;13.10;1.00
4699;DHT22;33708;49.466;11.176;2023-05-29T01:08:58;13.00;1.00
4699;DHT22;33708;49.466;11.176;2023-05-29T01:20:36;12.40;1.00
4699;DHT22;33708;49.466;11.176;2023-05-29T01:28:09;12.10;1.00
4699;DHT22;33708;49.466;11.176;2023-05-29T01:30:37;12.10;1.00
4699;DHT22;33708;49.466;11.176;2023-05-29T01:33:04;12.10;1.00
4699;DHT22;33708;49.466;11.176;2023-05-29T01:35:32;12.10;1.00
4699;DHT22;33708;49.466;11.176;2023-05-29T01:37:57;12.10;1.00
4699;DHT22;33708;49.466;11.176;2023-05-29T01:40:23;12.00;1.00
4699;DHT22;33708;49.466;11.176;2023-05-29T01:42:49;11.90;1.00
4699;DHT22;33708;49.466;11.176;2023-05-29T01:45:15;11.80;1.00
4699;DHT22;33708;49.466;11.176;2023-05-29T01:47:42;11.60;1.00
4699;DHT22;33708;49.466;11.176;2023-05-29T01:50:09;11.50;1.00
4699;DHT22;33708;49.466;11.176;2023-05-29T01:52:37;11.30;1.00
4699;DHT22;33708;49.466;11.176;2023-05-29T01:55:03;11.20;1.00
4699;DHT22;33708;49.466;11.176;2023-05-29T01:57:28;11.20;1.00
4699;DHT22;33708;49.466;11.176;2023-05-29T01:59:54;11.10;1.00
4699;DHT22;33708;49.466;11.176;2023-05-29T02:02:22;11.00;1.00
4699;DHT22;33708;49.466;11.176;2023-05-29T02:04:48;11.00;1.00
4699;DHT22;33708;49.466;11.176;2023-05-29T02:07:14;10.90;1.00
4699;DHT22;33708;49.466;11.176;2023-05-29T02:09:41;10.90;1.00
4699;DHT22;33708;49.466;11.176;2023-05-29T02:12:06;10.90;1.00
4699;DHT22;33708;49.466;11.176;2023-05-29T02:14:33;11.00;1.00
4699;DHT22;33708;49.466;11.176;2023-05-29T02:16:59;10.90;1.00
4699;DHT22;33708;49.466;11.176;2023-05-29T02:19:26;10.90;1.00
4699;DHT22;33708;49.466;11.176;2023-05-29T02:21:52;10.80;1.00
4699;DHT22;33708;49.466;11.176;2023-05-29T02:24:18;10.80;1.00
4699;DHT22;33708;49.466;11.176;2023-05-29T02:26:45;10.80;1.00
4699;DHT22;33708;49.466;11.176;2023-05-29T02:29:14;10.70;1.00
4699;DHT22;33708;49.466;11.176;2023-05-29T02:31:40;10.70;1.00
4699;DHT22;33708;49.466;11.176;2023-05-29T02:36:49;10.70;1.00
4699;DHT22;33708;49.466;11.176;2023-05-29T02:39:21;10.60;1.00
4699;DHT22;33708;49.466;11.176;2023-05-29T02:41:46;10.60;1.00
4699;DHT22;33708;49.466;11.176;2023-05-29T02:44:12;10.60;1.00
4699;DHT22;33708;49.466;11.176;2023-05-29T02:46:37;10.50;1.00
4699;DHT22;33708;49.466;11.176;2023-05-29T02:49:03;10.50;1.00
4699;DHT22;33708;49.466;11.176;2023-05-29T02:51:29;10.60;1.00
4699;DHT22;33708;49.466;11.176;2023-05-29T02:53:55;10.60;1.00
4699;DHT22;33708;49.466;11.176;2023-05-29T02:56:21;10.50;1.00
4699;DHT22;33708;49.466;11.176;2023-05-29T02:58:52;10.40;1.00
4699;DHT22;33708;49.466;11.176;2023-05-29T03:01:18;10.20;1.00
4699;DHT22;33708;49.466;11.176;2023-05-29T03:03:43;10.10;1.00
4699;DHT22;33708;49.466;11.176;2023-05-29T03:06:09;10.10;1.00
4699;DHT22;33708;49.466;11.176;2023-05-29T03:08:38;10.20;1.00
4699;DHT22;33708;49.466;11.176;2023-05-29T03:11:07;10.20;1.00
4699;DHT22;33708;49.466;11.176;2023-05-29T03:13:36;10.10;1.00
4699;DHT22;33708;49.466;11.176;2023-05-29T03:16:02;10.10;1.00
4699;DHT22;33708;49.466;11.176;2023-05-29T03:18:28;10.10;1.00
4699;DHT22;33708;49.466;11.176;2023-05-29T03:20:54;10.00;1.00
4699;DHT22;33708;49.466;11.176;2023-05-29T03:23:20;10.00;1.00
4699;DHT22;33708;49.466;11.176;2023-05-29T03:25:45;10.00;1.00
4699;DHT22;33708;49.466;11.176;2023-05-29T03:28:11;10.00;1.00
4699;DHT22;33708;49.466;11.176;2023-05-29T03:30:36;10.20;1.00
4699;DHT22;33708;49.466;11.176;2023-05-29T03:33:02;10.40;1.00
4699;DHT22;33708;49.466;11.176;2023-05-29T03:35:31;10.30;1.00
4699;DHT22;33708;49.466;11.176;2023-05-29T03:37:57;10.20;1.00
4699;DHT22;33708;49.466;11.176;2023-05-29T03:40:23;10.30;1.00
4699;DHT22;33708;49.466;11.176;2023-05-29T03:42:48;10.90;1.00
4699;DHT22;33708;49.466;11.176;2023-05-29T03:45:14;11.50;1.00
4699;DHT22;33708;49.466;11.176;2023-05-29T03:47:40;12.10;1.00
4699;DHT22;33708;49.466;11.176;2023-05-29T03:50:06;12.60;1.00
4699;DHT22;33708;49.466;11.176;2023-05-29T03:52:31;12.50;40.50
4699;DHT22;33708;49.466;11.176;2023-05-29T03:54:57;12.30;79.00
4699;DHT22;33708;49.466;11.176;2023-05-29T03:57:23;13.20;1.00
4699;DHT22;33708;49.466;11.176;2023-05-29T03:59:48;14.00;1.00
4699;DHT22;33708;49.466;11.176;2023-05-29T04:02:14;14.80;1.00
4699;DHT22;33708;49.466;11.176;2023-05-29T04:04:39;15.50;25.60
4699;DHT22;33708;49.466;11.176;2023-05-29T04:07:05;15.90;4.30
4699;DHT22;33708;49.466;11.176;2023-05-29T04:09:32;16.70;1.00
4699;DHT22;33708;49.466;11.176;2023-05-29T04:11:59;17.50;1.00
4699;DHT22;33708;49.466;11.176;2023-05-29T04:14:25;18.10;1.00
4699;DHT22;33708;49.466;11.176;2023-05-29T04:16:50;18.80;1.00
4699;DHT22;33708;49.466;11.176;2023-05-29T04:19:16;19.20;1.00
4699;DHT22;33708;49.466;11.176;2023-05-29T04:21:41;20.10;1.00
4699;DHT22;33708;49.466;11.176;2023-05-29T04:24:07;20.40;1.00
4699;DHT22;33708;49.466;11.176;2023-05-29T04:26:33;20.80;1.00
4699;DHT22;33708;49.466;11.176;2023-05-29T04:28:59;21.10;1.00
4699;DHT22;33708;49.466;11.176;2023-05-29T04:31:25;21.80;1.00
4699;DHT22;33708;49.466;11.176;2023-05-29T04:33:54;22.30;1.00
4699;DHT22;33708;49.466;11.176;2023-05-29T04:36:24;23.40;1.00
4699;DHT22;33708;49.466;11.176;2023-05-29T04:38:55;24.20;1.00
4699;DHT22;33708;49.466;11.176;2023-05-29T04:41:20;25.00;1.00
4699;DHT22;33708;49.466;11.176;2023-05-29T04:43:49;25.80;1.00
4699;DHT22;33708;49.466;11.176;2023-05-29T04:46:16;25.50;1.00
4699;DHT22;33708;49.466;11.176;2023-05-29T04:48:42;25.30;1.00
4699;DHT22;33708;49.466;11.176;2023-05-29T04:51:09;25.40;1.00
4699;DHT22;33708;49.466;11.176;2023-05-29T04:53:39;27.00;1.00
4699;DHT22;33708;49.466;11.176;2023-05-29T04:56:06;27.40;1.00
4699;DHT22;33708;49.466;11.176;2023-05-29T04:58:32;27.10;1.00
4699;DHT22;33708;49.466;11.176;2023-05-29T05:00:57;26.80;1.00
4699;DHT22;33708;49.466;11.176;2023-05-29T05:03:23;25.90;1.00
4699;DHT22;33708;49.466;11.176;2023-05-29T05:05:51;25.10;1.00
4699;DHT22;33708;49.466;11.176;2023-05-29T05:08:17;25.20;1.00
4699;DHT22;33708;49.466;11.176;2023-05-29T05:10:43;25.70;1.00
4699;DHT22;33708;49.466;11.176;2023-05-29T05:13:08;26.10;1.00
4699;DHT22;33708;49.466;11.176;2023-05-29T05:15:36;25.80;1.00
4699;DHT22;33708;49.466;11.176;2023-05-29T05:18:02;26.10;1.00
4699;DHT22;33708;49.466;11.176;2023-05-29T05:20:27;26.80;1.00
4699;DHT22;33708;49.466;11.176;2023-05-29T05:22:53;27.10;1.00
4699;DHT22;33708;49.466;11.176;2023-05-29T05:25:18;25.60;1.00
4699;DHT22;33708;49.466;11.176;2023-05-29T05:27:44;25.10;1.00
4699;DHT22;33708;49.466;11.176;2023-05-29T05:30:10;26.20;1.00
4699;DHT22;33708;49.466;11.176;2023-05-29T05:32:35;27.00;1.00
4699;DHT22;33708;49.466;11.176;2023-05-29T05:35:01;26.60;1.00
4699;DHT22;33708;49.466;11.176;2023-05-29T05:37:27;26.70;1.00
4699;DHT22;33708;49.466;11.176;2023-05-29T05:39:52;27.30;1.00
4699;DHT22;33708;49.466;11.176;2023-05-29T05:42:19;27.70;1.00
4699;DHT22;33708;49.466;11.176;2023-05-29T05:44:45;28.50;1.00
4699;DHT22;33708;49.466;11.176;2023-05-29T05:47:11;26.80;1.00
4699;DHT22;33708;49.466;11.176;2023-05-29T05:49:36;28.70;1.00
4699;DHT22;33708;49.466;11.176;2023-05-29T05:52:02;29.00;1.00
4699;DHT22;33708;49.466;11.176;2023-05-29T05:54:27;28.70;1.00
4699;DHT22;33708;49.466;11.176;2023-05-29T05:56:53;29.60;1.00
4699;DHT22;33708;49.466;11.176;2023-05-29T05:59:18;29.20;1.00
4699;DHT22;33708;49.466;11.176;2023-05-29T06:01:44;29.80;1.00
4699;DHT22;33708;49.466;11.176;2023-05-29T06:04:10;30.20;1.00
4699;DHT22;33708;49.466;11.176;2023-05-29T06:06:35;30.90;1.00
4699;DHT22;33708;49.466;11.176;2023-05-29T06:09:01;33.00;1.00
4699;DHT22;33708;49.466;11.176;2023-05-29T06:11:26;33.10;1.00
4699;DHT22;33708;49.466;11.176;2023-05-29T06:13:53;33.30;1.00
4699;DHT22;33708;49.466;11.176;2023-05-29T06:16:19;33.40;1.00
4699;DHT22;33708;49.466;11.176;2023-05-29T06:18:44;33.10;1.00
4699;DHT22;33708;49.466;11.176;2023-05-29T06:21:12;33.50;1.00
4699;DHT22;33708;49.466;11.176;2023-05-29T06:23:38;32.30;1.00
4699;DHT22;33708;49.466;11.176;2023-05-29T06:26:03;34.00;1.00
4699;DHT22;33708;49.466;11.176;2023-05-29T06:28:29;34.20;1.00
4699;DHT22;33708;49.466;11.176;2023-05-29T06:30:55;32.10;1.00
4699;DHT22;33708;49.466;11.176;2023-05-29T06:33:21;32.30;1.00
4699;DHT22;33708;49.466;11.176;2023-05-29T06:35:47;32.80;1.00
4699;DHT22;33708;49.466;11.176;2023-05-29T06:38:16;33.40;1.00
4699;DHT22;33708;49.466;11.176;2023-05-29T06:40:41;32.90;1.00
4699;DHT22;33708;49.466;11.176;2023-05-29T06:43:07;33.10;1.00
4699;DHT22;33708;49.466;11.176;2023-05-29T06:45:34;34.90;1.00
4699;DHT22;33708;49.466;11.176;2023-05-29T06:48:00;33.00;1.00
4699;DHT22;33708;49.466;11.176;2023-05-29T06:50:26;31.40;1.00
4699;DHT22;33708;49.466;11.176;2023-05-29T06:52:51;31.30;1.00
4699;DHT22;33708;49.466;11.176;2023-05-29T06:55:17;30.90;1.00
4699;DHT22;33708;49.466;11.176;2023-05-29T06:57:42;31.10;1.00
4699;DHT22;33708;49.466;11.176;2023-05-29T07:00:09;31.30;1.00
4699;DHT22;33708;49.466;11.176;2023-05-29T07:02:36;32.10;1.00
4699;DHT22;33708;49.466;11.176;2023-05-29T07:05:02;34.50;1.00
4699;DHT22;33708;49.466;11.176;2023-05-29T07:07:28;31.00;1.00
4699;DHT22;33708;49.466;11.176;2023-05-29T07:09:53;31.50;1.00
4699;DHT22;33708;49.466;11.176;2023-05-29T07:12:19;32.30;1.00
4699;DHT22;33708;49.466;11.176;2023-05-29T07:14:44;34.00;1.00
4699;DHT22;33708;49.466;11.176;2023-05-29T07:17:13;35.40;1.00
4699;DHT22;33708;49.466;11.176;2023-05-29T07:19:39;31.80;1.00
4699;DHT22;33708;49.466;11.176;2023-05-29T07:22:05;35.70;1.00
4699;DHT22;33708;49.466;11.176;2023-05-29T07:24:30;34.00;1.00
4699;DHT22;33708;49.466;11.176;2023-05-29T07:26:56;34.70;1.00
4699;DHT22;33708;49.466;11.176;2023-05-29T07:29:22;34.30;1.00
4699;DHT22;33708;49.466;11.176;2023-05-29T07:31:51;35.20;1.00
4699;DHT22;33708;49.466;11.176;2023-05-29T07:34:17;35.80;1.00
4699;DHT22;33708;49.466;11.176;2023-05-29T07:37:02;34.60;1.00
4699;DHT22;33708;49.466;11.176;2023-05-29T07:39:29;34.70;1.00
4699;DHT22;33708;49.466;11.176;2023-05-29T07:41:55;34.70;1.00
4699;DHT22;33708;49.466;11.176;2023-05-29T07:44:21;34.60;1.00
4699;DHT22;33708;49.466;11.176;2023-05-29T07:46:46;32.60;1.00
4699;DHT22;33708;49.466;11.176;2023-05-29T07:49:13;32.60;1.00
4699;DHT22;33708;49.466;11.176;2023-05-29T07:51:38;32.50;1.00
4699;DHT22;33708;49.466;11.176;2023-05-29T07:54:05;32.10;1.00
4699;DHT22;33708;49.466;11.176;2023-05-29T07:56:30;32.70;1.00
4699;DHT22;33708;49.466;11.176;2023-05-29T07:58:57;32.80;1.00
4699;DHT22;33708;49.466;11.176;2023-05-29T08:01:23;32.50;1.00
4699;DHT22;33708;49.466;11.176;2023-05-29T08:03:48;33.00;1.00
4699;DHT22;33708;49.466;11.176;2023-05-29T08:06:14;33.30;1.00
4699;DHT22;33708;49.466;11.176;2023-05-29T08:08:40;32.90;1.00
4699;DHT22;33708;49.466;11.176;2023-05-29T08:11:06;31.40;1.00
4699;DHT22;33708;49.466;11.176;2023-05-29T08:13:31;31.60;1.00
4699;DHT22;33708;49.466;11.176;2023-05-29T08:15:57;31.90;1.00
4699;DHT22;33708;49.466;11.176;2023-05-29T08:18:25;29.60;1.00
4699;DHT22;33708;49.466;11.176;2023-05-29T08:20:52;30.80;1.00
4699;DHT22;33708;49.466;11.176;2023-05-29T08:23:21;30.80;1.00
4699;DHT22;33708;49.466;11.176;2023-05-29T08:25:46;28.30;1.00
4699;DHT22;33708;49.466;11.176;2023-05-29T08:28:14;30.20;1.00
4699;DHT22;33708;49.466;11.176;2023-05-29T08:30:40;29.60;1.00
4699;DHT22;33708;49.466;11.176;2023-05-29T08:33:06;31.00;1.00
4699;DHT22;33708;49.466;11.176;2023-05-29T08:35:32;31.70;1.00
4699;DHT22;33708;49.466;11.176;2023-05-29T08:37:58;32.60;1.00
4699;DHT22;33708;49.466;11.176;2023-05-29T08:40:24;31.10;1.00
4699;DHT22;33708;49.466;11.176;2023-05-29T08:42:57;31.60;1.00
4699;DHT22;33708;49.466;11.176;2023-05-29T08:45:25;30.50;1.00
4699;DHT22;33708;49.466;11.176;2023-05-29T08:47:52;32.90;1.00
4699;DHT22;33708;49.466;11.176;2023-05-29T08:50:20;32.60;1.00
4699;DHT22;33708;49.466;11.176;2023-05-29T08:52:46;31.00;1.00
4699;DHT22;33708;49.466;11.176;2023-05-29T08:55:12;31.90;1.00
4699;DHT22;33708;49.466;11.176;2023-05-29T08:57:38;29.90;1.00
4699;DHT22;33708;49.466;11.176;2023-05-29T09:00:05;31.20;1.00
4699;DHT22;33708;49.466;11.176;2023-05-29T09:02:39;31.00;1.00
4699;DHT22;33708;49.466;11.176;2023-05-29T09:05:05;31.50;1.00
4699;DHT22;33708;49.466;11.176;2023-05-29T09:07:32;31.10;1.00
4699;DHT22;33708;49.466;11.176;2023-05-29T09:09:58;31.30;1.00
4699;DHT22;33708;49.466;11.176;2023-05-29T09:12:24;28.90;1.00
4699;DHT22;33708;49.466;11.176;2023-05-29T09:14:50;31.10;1.00
4699;DHT22;33708;49.466;11.176;2023-05-29T09:17:16;31.50;1.00
4699;DHT22;33708;49.466;11.176;2023-05-29T09:19:41;29.60;1.00
4699;DHT22;33708;49.466;11.176;2023-05-29T09:22:13;30.40;1.00
4699;DHT22;33708;49.466;11.176;2023-05-29T09:24:41;30.10;1.00
4699;DHT22;33708;49.466;11.176;2023-05-29T09:27:08;29.70;1.00
4699;DHT22;33708;49.466;11.176;2023-05-29T09:29:41;30.30;1.00
4699;DHT22;33708;49.466;11.176;2023-05-29T09:32:12;31.00;1.00
4699;DHT22;33708;49.466;11.176;2023-05-29T09:34:38;29.30;1.00
4699;DHT22;33708;49.466;11.176;2023-05-29T09:37:08;29.40;1.00
4699;DHT22;33708;49.466;11.176;2023-05-29T09:39:51;29.00;1.00
4699;DHT22;33708;49.466;11.176;2023-05-29T09:42:19;30.80;1.00
4699;DHT22;33708;49.466;11.176;2023-05-29T09:44:49;30.20;1.00
4699;DHT22;33708;49.466;11.176;2023-05-29T09:47:17;30.40;1.00
4699;DHT22;33708;49.466;11.176;2023-05-29T09:49:43;30.40;1.00
4699;DHT22;33708;49.466;11.176;2023-05-29T09:52:14;30.90;1.00
4699;DHT22;33708;49.466;11.176;2023-05-29T09:54:42;28.20;1.00
4699;DHT22;33708;49.466;11.176;2023-05-29T09:57:14;27.30;1.00
4699;DHT22;33708;49.466;11.176;2023-05-29T09:59:43;25.90;1.00
4699;DHT22;33708;49.466;11.176;2023-05-29T10:02:17;25.70;1.00
4699;DHT22;33708;49.466;11.176;2023-05-29T10:04:43;25.30;1.00
4699;DHT22;33708;49.466;11.176;2023-05-29T10:07:28;24.80;1.00
4699;DHT22;33708;49.466;11.176;2023-05-29T10:10:02;25.00;1.00
4699;DHT22;33708;49.466;11.176;2023-05-29T10:12:29;24.70;1.00
4699;DHT22;33708;49.466;11.176;2023-05-29T10:14:57;24.90;1.00
4699;DHT22;33708;49.466;11.176;2023-05-29T10:17:26;24.70;1.00
4699;DHT22;33708;49.466;11.176;2023-05-29T10:19:55;24.50;1.00
4699;DHT22;33708;49.466;11.176;2023-05-29T10:22:25;25.20;1.00
4699;DHT22;33708;49.466;11.176;2023-05-29T10:24:52;24.90;1.00
4699;DHT22;33708;49.466;11.176;2023-05-29T10:27:18;24.00;1.00
4699;DHT22;33708;49.466;11.176;2023-05-29T10:30:02;24.30;1.00
4699;DHT22;33708;49.466;11.176;2023-05-29T10:38:13;24.50;1.00
4699;DHT22;33708;49.466;11.176;2023-05-29T10:40:44;24.40;1.00
4699;DHT22;33708;49.466;11.176;2023-05-29T10:43:33;24.50;1.00
4699;DHT22;33708;49.466;11.176;2023-05-29T10:46:02;24.50;1.00
4699;DHT22;33708;49.466;11.176;2023-05-29T10:48:37;24.80;1.00
4699;DHT22;33708;49.466;11.176;2023-05-29T10:51:05;24.90;1.00
4699;DHT22;33708;49.466;11.176;2023-05-29T10:53:32;24.90;1.00
4699;DHT22;33708;49.466;11.176;2023-05-29T10:55:59;24.40;1.00
4699;DHT22;33708;49.466;11.176;2023-05-29T10:58:26;24.80;1.00
4699;DHT22;33708;49.466;11.176;2023-05-29T11:01:01;24.50;1.00
4699;DHT22;33708;49.466;11.176;2023-05-29T11:03:31;24.50;1.00
4699;DHT22;33708;49.466;11.176;2023-05-29T11:06:06;25.00;1.00
4699;DHT22;33708;49.466;11.176;2023-05-29T11:08:46;25.30;1.00
4699;DHT22;33708;49.466;11.176;2023-05-29T11:11:14;25.10;1.00
4699;DHT22;33708;49.466;11.176;2023-05-29T11:13:40;24.50;1.00
4699;DHT22;33708;49.466;11.176;2023-05-29T11:18:47;25.30;1.00
4699;DHT22;33708;49.466;11.176;2023-05-29T11:23:53;25.10;1.00
4699;DHT22;33708;49.466;11.176;2023-05-29T11:26:22;24.70;1.00
4699;DHT22;33708;49.466;11.176;2023-05-29T11:28:48;24.70;1.00
4699;DHT22;33708;49.466;11.176;2023-05-29T11:31:15;24.90;1.00
4699;DHT22;33708;49.466;11.176;2023-05-29T11:33:47;25.10;1.00
4699;DHT22;33708;49.466;11.176;2023-05-29T11:36:14;25.60;1.00
4699;DHT22;33708;49.466;11.176;2023-05-29T11:38:41;25.70;1.00
4699;DHT22;33708;49.466;11.176;2023-05-29T11:41:07;25.80;1.00
4699;DHT22;33708;49.466;11.176;2023-05-29T11:43:34;26.10;1.00
4699;DHT22;33708;49.466;11.176;2023-05-29T11:46:00;26.10;1.00
4699;DHT22;33708;49.466;11.176;2023-05-29T11:48:26;25.70;1.00
4699;DHT22;33708;49.466;11.176;2023-05-29T11:50:52;25.80;1.00
4699;DHT22;33708;49.466;11.176;2023-05-29T11:53:18;25.60;1.00
4699;DHT22;33708;49.466;11.176;2023-05-29T11:55:44;25.60;1.00
4699;DHT22;33708;49.466;11.176;2023-05-29T11:58:09;26.10;1.00
4699;DHT22;33708;49.466;11.176;2023-05-29T12:00:38;25.80;1.00
4699;DHT22;33708;49.466;11.176;2023-05-29T12:03:05;25.60;1.00
4699;DHT22;33708;49.466;11.176;2023-05-29T12:05:48;25.80;1.00
4699;DHT22;33708;49.466;11.176;2023-05-29T12:08:14;25.80;1.00
4699;DHT22;33708;49.466;11.176;2023-05-29T12:10:47;26.00;1.00
4699;DHT22;33708;49.466;11.176;2023-05-29T12:13:14;25.40;1.00
4699;DHT22;33708;49.466;11.176;2023-05-29T12:15:43;26.10;1.00
4699;DHT22;33708;49.466;11.176;2023-05-29T12:18:09;25.50;1.00
4699;DHT22;33708;49.466;11.176;2023-05-29T12:20:35;25.40;1.00
4699;DHT22;33708;49.466;11.176;2023-05-29T12:23:01;25.50;1.00
4699;DHT22;33708;49.466;11.176;2023-05-29T12:25:28;26.10;1.00
4699;DHT22;33708;49.466;11.176;2023-05-29T12:27:55;26.60;1.00
4699;DHT22;33708;49.466;11.176;2023-05-29T12:30:22;26.60;1.00
4699;DHT22;33708;49.466;11.176;2023-05-29T12:32:50;25.80;1.00
4699;DHT22;33708;49.466;11.176;2023-05-29T12:35:22;26.00;1.00
4699;DHT22;33708;49.466;11.176;2023-05-29T12:40:21;26.20;1.00
4699;DHT22;33708;49.466;11.176;2023-05-29T12:42:47;26.20;1.00
4699;DHT22;33708;49.466;11.176;2023-05-29T12:45:14;26.10;1.00
4699;DHT22;33708;49.466;11.176;2023-05-29T12:47:53;25.60;1.00
4699;DHT22;33708;49.466;11.176;2023-05-29T12:53:01;26.00;1.00
4699;DHT22;33708;49.466;11.176;2023-05-29T12:55:28;26.10;1.00
4699;DHT22;33708;49.466;11.176;2023-05-29T12:57:55;26.10;1.00
4699;DHT22;33708;49.466;11.176;2023-05-29T13:00:24;26.80;1.00
4699;DHT22;33708;49.466;11.176;2023-05-29T13:02:50;27.10;1.00
4699;DHT22;33708;49.466;11.176;2023-05-29T13:05:16;26.90;1.00
4699;DHT22;33708;49.466;11.176;2023-05-29T13:07:44;26.80;1.00
4699;DHT22;33708;49.466;11.176;2023-05-29T13:10:11;26.70;1.00
4699;DHT22;33708;49.466;11.176;2023-05-29T13:12:37;27.10;1.00
4699;DHT22;33708;49.466;11.176;2023-05-29T13:15:02;26.90;1.00
4699;DHT22;33708;49.466;11.176;2023-05-29T13:17:28;26.70;1.00
4699;DHT22;33708;49.466;11.176;2023-05-29T13:19:54;27.00;1.00
4699;DHT22;33708;49.466;11.176;2023-05-29T13:22:20;27.10;1.00
4699;DHT22;33708;49.466;11.176;2023-05-29T13:24:45;26.90;1.00
4699;DHT22;33708;49.466;11.176;2023-05-29T13:27:11;27.00;1.00
4699;DHT22;33708;49.466;11.176;2023-05-29T13:29:39;27.10;1.00
4699;DHT22;33708;49.466;11.176;2023-05-29T13:32:06;26.70;1.00
4699;DHT22;33708;49.466;11.176;2023-05-29T13:34:32;26.90;1.00
4699;DHT22;33708;49.466;11.176;2023-05-29T13:36:58;27.40;1.00
4699;DHT22;33708;49.466;11.176;2023-05-29T13:39:23;27.30;1.00
4699;DHT22;33708;49.466;11.176;2023-05-29T13:41:50;27.20;1.00
4699;DHT22;33708;49.466;11.176;2023-05-29T13:44:16;27.20;1.00
4699;DHT22;33708;49.466;11.176;2023-05-29T13:46:41;27.30;1.00
4699;DHT22;33708;49.466;11.176;2023-05-29T13:49:07;27.30;1.00
4699;DHT22;33708;49.466;11.176;2023-05-29T13:51:33;26.90;1.00
4699;DHT22;33708;49.466;11.176;2023-05-29T13:53:59;26.80;1.00
4699;DHT22;33708;49.466;11.176;2023-05-29T13:56:25;27.10;1.00
4699;DHT22;33708;49.466;11.176;2023-05-29T13:58:53;27.00;1.00
4699;DHT22;33708;49.466;11.176;2023-05-29T14:01:19;26.90;1.00
4699;DHT22;33708;49.466;11.176;2023-05-29T14:03:45;27.00;1.00
4699;DHT22;33708;49.466;11.176;2023-05-29T14:06:11;27.30;1.00
4699;DHT22;33708;49.466;11.176;2023-05-29T14:08:37;27.30;1.00
4699;DHT22;33708;49.466;11.176;2023-05-29T14:11:03;27.70;1.00
4699;DHT22;33708;49.466;11.176;2023-05-29T14:13:29;27.50;1.00
4699;DHT22;33708;49.466;11.176;2023-05-29T14:15:54;27.20;1.00
4699;DHT22;33708;49.466;11.176;2023-05-29T14:18:24;27.70;1.00
4699;DHT22;33708;49.466;11.176;2023-05-29T14:20:50;27.30;1.00
4699;DHT22;33708;49.466;11.176;2023-05-29T14:23:18;27.40;1.00
4699;DHT22;33708;49.466;11.176;2023-05-29T14:25:44;27.50;1.00
4699;DHT22;33708;49.466;11.176;2023-05-29T14:28:10;27.20;1.00
4699;DHT22;33708;49.466;11.176;2023-05-29T14:30:39;27.40;1.00
4699;DHT22;33708;49.466;11.176;2023-05-29T14:33:05;27.90;1.00
4699;DHT22;33708;49.466;11.176;2023-05-29T14:35:31;28.30;1.00
4699;DHT22;33708;49.466;11.176;2023-05-29T14:37:57;28.00;1.00
4699;DHT22;33708;49.466;11.176;2023-05-29T14:40:23;27.60;1.00
4699;DHT22;33708;49.466;11.176;2023-05-29T14:42:49;27.70;1.00
4699;DHT22;33708;49.466;11.176;2023-05-29T14:45:14;27.80;1.00
4699;DHT22;33708;49.466;11.176;2023-05-29T14:47:41;27.50;1.00
4699;DHT22;33708;49.466;11.176;2023-05-29T14:50:07;28.10;1.00
4699;DHT22;33708;49.466;11.176;2023-05-29T14:52:33;27.80;1.00
4699;DHT22;33708;49.466;11.176;2023-05-29T14:55:01;27.10;1.00
4699;DHT22;33708;49.466;11.176;2023-05-29T14:57:28;26.90;1.00
4699;DHT22;33708;49.466;11.176;2023-05-29T14:59:55;26.90;1.00
4699;DHT22;33708;49.466;11.176;2023-05-29T15:02:21;27.20;1.00
4699;DHT22;33708;49.466;11.176;2023-05-29T15:04:46;27.60;1.00
4699;DHT22;33708;49.466;11.176;2023-05-29T15:07:12;28.20;1.00
4699;DHT22;33708;49.466;11.176;2023-05-29T15:09:37;28.20;1.00
4699;DHT22;33708;49.466;11.176;2023-05-29T15:12:03;27.70;1.00
4699;DHT22;33708;49.466;11.176;2023-05-29T15:14:29;27.40;1.00
4699;DHT22;33708;49.466;11.176;2023-05-29T15:16:54;27.30;1.00
4699;DHT22;33708;49.466;11.176;2023-05-29T15:19:20;27.20;1.00
4699;DHT22;33708;49.466;11.176;2023-05-29T15:21:46;26.90;1.00
4699;DHT22;33708;49.466;11.176;2023-05-29T15:24:11;27.20;1.00
4699;DHT22;33708;49.466;11.176;2023-05-29T15:26:37;27.30;1.00
4699;DHT22;33708;49.466;11.176;2023-05-29T15:29:03;27.00;1.00
4699;DHT22;33708;49.466;11.176;2023-05-29T15:31:28;26.80;1.00
4699;DHT22;33708;49.466;11.176;2023-05-29T15:33:54;26.90;1.00
4699;DHT22;33708;49.466;11.176;2023-05-29T15:36:20;27.10;1.00
4699;DHT22;33708;49.466;11.176;2023-05-29T15:38:46;27.20;1.00
4699;DHT22;33708;49.466;11.176;2023-05-29T15:41:12;26.90;1.00
4699;DHT22;33708;49.466;11.176;2023-05-29T15:43:37;27.10;1.00
4699;DHT22;33708;49.466;11.176;2023-05-29T15:46:03;26.80;1.00
4699;DHT22;33708;49.466;11.176;2023-05-29T15:48:29;26.50;1.00
4699;DHT22;33708;49.466;11.176;2023-05-29T15:50:55;26.80;1.00
4699;DHT22;33708;49.466;11.176;2023-05-29T15:53:21;26.50;1.00
4699;DHT22;33708;49.466;11.176;2023-05-29T15:55:47;26.50;1.00
4699;DHT22;33708;49.466;11.176;2023-05-29T15:58:12;26.70;1.00
4699;DHT22;33708;49.466;11.176;2023-05-29T16:00:38;26.60;1.00
4699;DHT22;33708;49.466;11.176;2023-05-29T16:03:04;26.70;1.00
4699;DHT22;33708;49.466;11.176;2023-05-29T16:05:30;26.40;1.00
4699;DHT22;33708;49.466;11.176;2023-05-29T16:07:56;26.50;1.00
4699;DHT22;33708;49.466;11.176;2023-05-29T16:10:21;26.40;1.00
4699;DHT22;33708;49.466;11.176;2023-05-29T16:12:47;26.60;1.00
4699;DHT22;33708;49.466;11.176;2023-05-29T16:15:19;26.40;1.00